createdAt,value
2022-10-24T00:03:26.105Z,100047.44
2022-10-24T00:08:27.812Z,100038.72
2022-10-24T00:13:29.606Z,100026.78
2022-10-24T00:18:31.274Z,100028.91
2022-10-24T00:23:33.139Z,100033.13
2022-10-24T00:28:36.653Z,100032.06
2022-10-24T00:33:38.433Z,100028.00
2022-10-24T00:38:40.121Z,100019.22
2022-10-24T00:43:41.872Z,100008.38
2022-10-24T00:48:53.918Z,100004.09
2022-10-24T00:54:03.825Z,100017.47
2022-10-24T00:59:08.914Z,100007.88
2022-10-24T01:04:13.488Z,99995.94
2022-10-24T01:09:40.187Z,99991.03
2022-10-24T01:14:48.093Z,99980.81
2022-10-24T01:20:07.726Z,99967.81
2022-10-24T01:25:09.256Z,99972.66
2022-10-24T01:30:16.294Z,99970.75
2022-10-24T01:35:37.151Z,99976.94
2022-10-24T01:41:00.393Z,99963.09
2022-10-24T01:46:08.138Z,99960.94
2022-10-24T01:51:13.571Z,99954.09
2022-10-24T01:56:15.151Z,99945.09
2022-10-24T02:01:22.551Z,99934.25
2022-10-24T02:06:31.358Z,99927.88
2022-10-24T02:11:34.899Z,99926.19
2022-10-24T02:16:36.769Z,99923.84
2022-10-24T02:21:46.646Z,99919.16
2022-10-24T02:26:57.288Z,99926.63
2022-10-24T02:31:59.823Z,99917.72
2022-10-24T02:37:03.946Z,99927.72
2022-10-24T02:42:08.581Z,99931.94
2022-10-24T02:47:13.023Z,99931.94
2022-10-24T02:52:15.411Z,99918.72
2022-10-24T02:57:17.457Z,99907.56
2022-10-24T03:02:19.582Z,99907.13
2022-10-24T03:07:21.306Z,99903.88
2022-10-24T03:12:24.255Z,99906.41
2022-10-24T03:17:26.041Z,99915.13
2022-10-24T03:22:30.601Z,99896.34
2022-10-24T03:27:34.103Z,99903.56
2022-10-24T03:32:36.107Z,99889.09
2022-10-24T03:37:37.754Z,99896.19
2022-10-24T03:42:39.734Z,99899.78
2022-10-24T03:47:41.431Z,99892.34
2022-10-24T03:52:43.539Z,99900.47
2022-10-24T03:57:45.773Z,99895.41
2022-10-24T04:02:47.937Z,99906.50
2022-10-24T04:07:49.614Z,99903.72
2022-10-24T04:12:51.342Z,99906.50
2022-10-24T04:17:52.982Z,99914.31
2022-10-24T04:22:54.696Z,99908.94
2022-10-24T04:27:56.296Z,99911.09
2022-10-24T04:32:58.251Z,99914.31
2022-10-24T04:37:59.917Z,99900.72
2022-10-24T04:43:01.560Z,99896.66
2022-10-24T04:48:03.841Z,99888.78
2022-10-24T04:53:05.445Z,99889.66
2022-10-24T04:58:09.039Z,99893.72
2022-10-24T05:03:13.783Z,99877.56
2022-10-24T05:08:16.146Z,99884.56
2022-10-24T05:13:17.839Z,99887.50
2022-10-24T05:18:19.467Z,99880.63
2022-10-24T05:23:21.040Z,99876.94
2022-10-24T05:28:23.051Z,99886.69
2022-10-24T05:33:24.935Z,99880.44
2022-10-24T05:38:26.694Z,99873.69
2022-10-24T05:43:28.346Z,99879.63
2022-10-24T05:48:30.009Z,99873.84
2022-10-24T05:53:31.697Z,99868.91
2022-10-24T05:58:35.533Z,99886.16
2022-10-24T06:03:37.435Z,99870.13
2022-10-24T06:08:39.270Z,99883.16
2022-10-24T06:13:41.042Z,99889.31
2022-10-24T06:18:45.027Z,99883.59
2022-10-24T06:23:46.848Z,99890.00
2022-10-24T06:28:48.524Z,99898.56
2022-10-24T06:33:50.333Z,99908.31
2022-10-24T06:38:52.330Z,99929.38
2022-10-24T06:43:57.324Z,99953.97
2022-10-24T06:49:13.105Z,99980.44
2022-10-24T06:54:27.741Z,99970.88
2022-10-24T06:59:31.860Z,99985.88
2022-10-24T07:04:33.584Z,99991.03
2022-10-24T07:09:35.327Z,99998.31
2022-10-24T07:14:37.359Z,100003.69
2022-10-24T07:19:39.329Z,100005.44
2022-10-24T07:24:41.246Z,100020.63
2022-10-24T07:29:43.320Z,100022.56
2022-10-24T07:34:47.508Z,100026.84
2022-10-24T07:39:49.342Z,100033.44
2022-10-24T07:44:53.748Z,100032.16
2022-10-24T07:49:55.873Z,100038.34
2022-10-24T07:54:58.409Z,100035.22
2022-10-24T08:00:00.262Z,100054.41
2022-10-24T08:05:03.435Z,100070.19
2022-10-24T08:10:11.318Z,100073.25
2022-10-24T08:15:13.786Z,100073.78
2022-10-24T08:20:15.412Z,100073.34
2022-10-24T08:25:17.150Z,100080.22
2022-10-24T08:30:20.330Z,100094.06
2022-10-24T08:35:22.068Z,100095.09
2022-10-24T08:40:23.928Z,100093.56
2022-10-24T08:45:34.316Z,100089.91
2022-10-24T08:50:38.310Z,100108.09
2022-10-24T08:55:50.574Z,100121.09
2022-10-24T09:00:55.802Z,100138.25
2022-10-24T09:06:03.916Z,100118.03
2022-10-24T09:11:07.179Z,100141.44
2022-10-24T09:16:19.915Z,100143.41
2022-10-24T09:21:22.883Z,100157.28
2022-10-24T09:26:29.748Z,100162.88
2022-10-24T09:31:31.636Z,100163.63
2022-10-24T09:36:33.638Z,100175.25
2022-10-24T09:41:36.486Z,100188.75
2022-10-24T09:46:46.184Z,100197.22
2022-10-24T09:51:52.247Z,100203.16
2022-10-24T09:57:12.316Z,100204.41
2022-10-24T10:02:14.243Z,100219.50
2022-10-24T10:07:25.913Z,100223.78
2022-10-24T10:12:34.655Z,100234.50
2022-10-24T10:17:49.077Z,100248.88
2022-10-24T10:22:50.837Z,100252.97
2022-10-24T10:27:53.029Z,100259.13
2022-10-24T10:33:17.412Z,100272.22
2022-10-24T10:38:34.300Z,100274.41
2022-10-24T10:43:48.098Z,100296.31
2022-10-24T10:49:28.192Z,100299.31
2022-10-24T10:54:36.034Z,100302.84
2022-10-24T10:59:59.441Z,100308.66
2022-10-24T11:05:42.399Z,100319.69
2022-10-24T11:10:54.997Z,100314.75
2022-10-24T11:16:01.852Z,100332.63
2022-10-24T11:21:09.664Z,100331.38
2022-10-24T11:26:35.720Z,100333.38
2022-10-24T11:31:42.422Z,100359.38
2022-10-24T11:36:59.936Z,100348.97
2022-10-24T11:42:29.481Z,100363.47
2022-10-24T11:47:46.749Z,100367.25
2022-10-24T11:52:51.802Z,100373.38
2022-10-24T11:58:02.666Z,100388.09
2022-10-24T12:03:32.152Z,100389.59
2022-10-24T12:08:33.796Z,100393.94
2022-10-24T12:13:35.407Z,100385.88
2022-10-24T12:18:45.328Z,100389.22
2022-10-24T12:24:22.399Z,100383.41
2022-10-24T12:29:26.092Z,100385.72
2022-10-24T12:34:27.658Z,100398.47
2022-10-24T12:39:31.793Z,100387.19
2022-10-24T12:44:33.591Z,100404.47
2022-10-24T12:49:35.393Z,100404.84
2022-10-24T12:54:45.329Z,100403.13
2022-10-24T12:59:58.674Z,100404.88
2022-10-24T13:05:17.835Z,100416.38
2022-10-24T13:10:27.801Z,100405.75
2022-10-24T13:15:44.223Z,100436.22
2022-10-24T13:20:51.585Z,100418.16
2022-10-24T13:25:57.224Z,100417.47
2022-10-24T13:30:58.817Z,100421.66
2022-10-24T13:36:09.756Z,100422.13
2022-10-24T13:41:14.311Z,100431.31
2022-10-24T13:46:45.186Z,100429.34
2022-10-24T13:51:52.593Z,100438.13
2022-10-24T13:56:57.162Z,100439.25
2022-10-24T14:02:06.348Z,100445.41
2022-10-24T14:07:09.203Z,100445.00
2022-10-24T14:12:25.068Z,100450.38
2022-10-24T14:17:33.716Z,100453.56
2022-10-24T14:22:41.463Z,100452.91
2022-10-24T14:27:44.055Z,100455.22
2022-10-24T14:32:46.395Z,100456.31
2022-10-24T14:37:51.330Z,100455.63
2022-10-24T14:42:55.197Z,100471.41
2022-10-24T14:48:00.864Z,100465.03
2022-10-24T14:53:04.737Z,100470.78
2022-10-24T14:58:06.620Z,100472.97
2022-10-24T15:03:10.711Z,100481.66
2022-10-24T15:08:27.838Z,100470.59
2022-10-24T15:13:33.071Z,100474.44
2022-10-24T15:18:43.263Z,100468.47
2022-10-24T15:23:55.763Z,100480.22
2022-10-24T15:29:03.757Z,100481.28
2022-10-24T15:34:07.818Z,100491.94
2022-10-24T15:39:18.566Z,100489.38
2022-10-24T15:44:30.916Z,100484.50
2022-10-24T15:49:34.818Z,100503.47
2022-10-24T15:54:36.489Z,100496.22
2022-10-24T15:59:38.580Z,100497.09
2022-10-24T16:04:40.361Z,100510.31
2022-10-24T16:09:42.257Z,100509.47
2022-10-24T16:14:43.998Z,100516.69
2022-10-24T16:19:45.884Z,100516.50
2022-10-24T16:24:48.873Z,100516.91
2022-10-24T16:29:50.640Z,100526.53
2022-10-24T16:34:52.621Z,100535.03
2022-10-24T16:39:54.309Z,100532.06
2022-10-24T16:44:56.135Z,100547.84
2022-10-24T16:50:00.258Z,100551.03
2022-10-24T16:55:01.965Z,100556.16
2022-10-24T17:00:06.266Z,100576.16
2022-10-24T17:05:08.330Z,100572.13
2022-10-24T17:10:11.890Z,100574.88
2022-10-24T17:15:16.812Z,100569.75
2022-10-24T17:20:21.196Z,100571.91
2022-10-24T17:25:26.452Z,100572.09
2022-10-24T17:30:38.449Z,100570.81
2022-10-24T17:35:47.798Z,100587.84
2022-10-24T17:40:50.466Z,100596.78
2022-10-24T17:45:53.779Z,100595.09
2022-10-24T17:50:57.976Z,100605.53
2022-10-24T17:55:59.623Z,100618.28
2022-10-24T18:01:01.408Z,100621.03
2022-10-24T18:06:05.646Z,100621.44
2022-10-24T18:11:10.902Z,100628.25
2022-10-24T18:16:15.632Z,100623.97
2022-10-24T18:21:24.402Z,100642.72
2022-10-24T18:26:27.194Z,100650.38
2022-10-24T18:31:30.072Z,100646.56
2022-10-24T18:36:32.056Z,100635.50
2022-10-24T18:41:39.740Z,100638.84
2022-10-24T18:46:41.701Z,100648.22
2022-10-24T18:52:01.447Z,100654.16
2022-10-24T18:57:16.325Z,100654.81
2022-10-24T19:02:34.971Z,100659.03
2022-10-24T19:07:36.939Z,100668.19
2022-10-24T19:12:38.833Z,100664.38
2022-10-24T19:17:41.106Z,100661.38
2022-10-24T19:22:42.921Z,100664.75
2022-10-24T19:27:44.995Z,100673.06
2022-10-24T19:32:48.072Z,100662.63
2022-10-24T19:37:50.127Z,100668.16
2022-10-24T19:42:52.599Z,100676.66
2022-10-24T19:47:55.599Z,100666.22
2022-10-24T19:52:57.557Z,100675.09
2022-10-24T19:57:59.271Z,100669.81
2022-10-24T20:03:00.985Z,100671.94
2022-10-24T20:08:02.838Z,100672.16
2022-10-24T20:13:04.459Z,100684.94
2022-10-24T20:18:06.092Z,100676.91
2022-10-24T20:23:07.697Z,100686.06
2022-10-24T20:28:09.546Z,100679.25
2022-10-24T20:33:11.297Z,100689.25
2022-10-24T20:38:13.023Z,100688.19
2022-10-24T20:43:16.812Z,100704.59
2022-10-24T20:48:18.406Z,100707.34
2022-10-24T20:53:20.748Z,100708.63
2022-10-24T20:58:22.339Z,100716.28
2022-10-24T21:03:24.007Z,100718.59
2022-10-24T21:08:25.684Z,100716.44
2022-10-24T21:13:27.299Z,100723.00
2022-10-24T21:18:28.995Z,100736.59
2022-10-24T21:23:30.580Z,100739.63
2022-10-24T21:28:32.609Z,100744.34
2022-10-24T21:33:34.275Z,100745.41
2022-10-24T21:38:36.043Z,100746.06
2022-10-24T21:43:40.263Z,100750.75
2022-10-24T21:48:43.572Z,100754.56
2022-10-24T21:53:50.662Z,100747.38
2022-10-24T21:58:54.924Z,100764.16
2022-10-24T22:03:58.391Z,100762.47
2022-10-24T22:09:00.916Z,100761.44
2022-10-24T22:14:03.645Z,100765.00
2022-10-24T22:19:05.810Z,100769.06
2022-10-24T22:24:27.899Z,100773.31
2022-10-24T22:29:29.685Z,100780.13
2022-10-24T22:34:31.566Z,100789.50
2022-10-24T22:39:33.525Z,100776.97
2022-10-24T22:44:35.582Z,100785.66
2022-10-24T22:50:01.912Z,100791.19
2022-10-24T22:55:05.189Z,100787.78
2022-10-24T23:00:09.040Z,100801.38
2022-10-24T23:05:28.968Z,100794.78
2022-10-24T23:10:31.145Z,100800.50
2022-10-24T23:15:33.003Z,100791.13
2022-10-24T23:20:48.835Z,100809.59
2022-10-24T23:26:10.338Z,100815.38
2022-10-24T23:31:12.415Z,100817.88
2022-10-24T23:36:25.047Z,100821.03
2022-10-24T23:41:29.932Z,100819.34
2022-10-24T23:46:38.196Z,100831.69
2022-10-24T23:51:56.451Z,100826.81
2022-10-24T23:56:58.447Z,100828.31
